Lake Almanor, California
Current Conditions -  °F | °C
As of 6:52 PM on Thursday 27 Nov 2014 (Local Time) from KBLU Reporting Station
Clear Clear  
Wind Chill: 52°   Ceiling: Unl
Heat Index: 52°   Visibility: 10mi
Dew Point: 23°   Wind: 7mph
Humidity: 32%   Direction: 140°SE
Pressure: 30.21"   Gusts: NA
Location:  39.56°N, 120.93°W
Report Text: KBLU 280252Z AUTO 14006KT 10SM CLR 11/M05 A3021 RMK AO2 SLP183 T01111050 56006
Loading
Personal Weather Stations






























Interactive Weather Map New forecast layout! Learn more

10-Day Weather Forecast

Advertisements
Track Severe Weather on mobile